Time;durP1;ratioP1;P1;durP2;ratioP2;P2;SDS_P1;SDS_P2;PMS_P1;PMS_P2;Temp;Humidity;BMP_temperature;BMP_pressure;BME280_temperature;BME280_humidity;BME280_pressure;Samples;Min_cycle;Max_cycle;Signal;HPM_P1;HPM_P2
2022/08/07 00:01:42;;;;;;;10.43;7.05;;;;;;;;;;5129018;27;20016;-71
2022/08/07 00:04:08;;;;;;;10.43;8.10;;;;;;;;;;5087286;28;20020;-71
2022/08/07 00:06:34;;;;;;;12.48;7.57;;;;;;;;;;5117555;28;20036;-72
2022/08/07 00:09:02;;;;;;;13.43;7.57;;;;;;;;;;5117518;28;20044;-72
2022/08/07 00:11:28;;;;;;;14.27;8.60;;;;;;;;;;5118884;27;20024;-71
2022/08/07 00:13:54;;;;;;;11.27;7.30;;;;;;;;;;5118781;27;20135;-72
2022/08/07 00:16:20;;;;;;;11.38;8.27;;;;;;;;;;5135135;27;20044;-72
2022/08/07 00:18:46;;;;;;;11.57;8.60;;;;;;;;;;5120113;28;20092;-72
2022/08/07 00:21:12;;;;;;;11.30;7.43;;;;;;;;;;5115124;28;20051;-71
2022/08/07 00:23:39;;;;;;;14.18;7.75;;;;;;;;;;5103767;28;20036;-71
2022/08/07 00:26:06;;;;;;;10.13;7.60;;;;;;;;;;5129204;27;20024;-70
2022/08/07 00:28:33;;;;;;;12.65;8.50;;;;;;;;;;5119766;27;20039;-71
2022/08/07 00:30:59;;;;;;;11.07;8.38;;;;;;;;;;5134142;27;20028;-71
2022/08/07 00:33:27;;;;;;;13.40;8.85;;;;;;;;;;5139014;27;20027;-71
2022/08/07 00:35:54;;;;;;;11.02;8.20;;;;;;;;;;5115955;27;20110;-71
2022/08/07 00:38:20;;;;;;;11.32;7.80;;;;;;;;;;5140341;27;20036;-71
2022/08/07 00:40:46;;;;;;;12.55;8.55;;;;;;;;;;5129209;27;20024;-71
2022/08/07 00:43:12;;;;;;;11.98;8.10;;;;;;;;;;5125622;27;20024;-72
2022/08/07 00:45:39;;;;;;;13.85;8.85;;;;;;;;;;5136963;27;20027;-72
2022/08/07 00:48:05;;;;;;;11.25;8.15;;;;;;;;;;5139985;27;20031;-72
2022/08/07 00:50:32;;;;;;;13.02;7.90;;;;;;;;;;5135362;27;20019;-71
2022/08/07 00:52:58;;;;;;;10.75;8.05;;;;;;;;;;5140703;27;20072;-71
2022/08/07 00:55:24;;;;;;;14.10;8.38;;;;;;;;;;5136313;27;20049;-72
2022/08/07 00:57:50;;;;;;;12.65;8.45;;;;;;;;;;5137829;27;20047;-72
2022/08/07 01:00:17;;;;;;;13.02;8.65;;;;;;;;;;5120398;28;20097;-72
2022/08/07 01:02:43;;;;;;;10.70;6.70;;;;;;;;;;5121497;27;20020;-71
2022/08/07 01:05:10;;;;;;;10.40;7.30;;;;;;;;;;5108885;28;20781;-71
2022/08/07 01:07:36;;;;;;;10.80;6.80;;;;;;;;;;5120369;28;20024;-71
2022/08/07 01:10:03;;;;;;;10.93;7.20;;;;;;;;;;5122750;27;20040;-72
2022/08/07 01:12:29;;;;;;;11.57;7.25;;;;;;;;;;5103029;28;20020;-71
2022/08/07 01:14:59;;;;;;;10.48;7.10;;;;;;;;;;5133128;27;20035;-71
2022/08/07 01:17:25;;;;;;;9.90;7.28;;;;;;;;;;5135406;27;20047;-71
2022/08/07 01:19:53;;;;;;;10.27;7.60;;;;;;;;;;5122632;27;20020;-71
2022/08/07 01:22:20;;;;;;;11.15;7.32;;;;;;;;;;5121438;28;20024;-71
2022/08/07 01:24:46;;;;;;;11.43;8.30;;;;;;;;;;5127515;27;20036;-71
2022/08/07 01:27:12;;;;;;;15.13;7.45;;;;;;;;;;5133844;27;20020;-72
2022/08/07 01:29:38;;;;;;;13.45;8.05;;;;;;;;;;5123881;27;20047;-72
2022/08/07 01:32:05;;;;;;;17.35;7.88;;;;;;;;;;5119999;28;20088;-72
2022/08/07 01:34:31;;;;;;;11.95;7.90;;;;;;;;;;5123619;27;20040;-71
2022/08/07 01:36:57;;;;;;;13.73;7.57;;;;;;;;;;5134252;27;20076;-71
2022/08/07 01:39:24;;;;;;;11.80;7.55;;;;;;;;;;5138754;27;20024;-71
2022/08/07 01:41:50;;;;;;;13.82;7.85;;;;;;;;;;5138978;27;20034;-71
2022/08/07 01:44:16;;;;;;;10.00;7.30;;;;;;;;;;5127710;27;20075;-72
2022/08/07 01:46:42;;;;;;;11.50;8.20;;;;;;;;;;5120131;28;20083;-71
2022/08/07 01:49:10;;;;;;;13.18;8.30;;;;;;;;;;5130777;27;20031;-72
2022/08/07 01:51:36;;;;;;;11.30;8.20;;;;;;;;;;5120150;28;20043;-71
2022/08/07 01:54:04;;;;;;;11.93;7.90;;;;;;;;;;5121379;28;20040;-71
2022/08/07 01:56:42;;;;;;;12.75;7.70;;;;;;;;;;5137498;27;20036;-71
2022/08/07 01:59:11;;;;;;;11.35;7.90;;;;;;;;;;5131633;27;20031;-71
2022/08/07 02:01:42;;;;;;;10.18;7.25;;;;;;;;;;5140314;27;20023;-71
2022/08/07 02:04:13;;;;;;;11.32;7.57;;;;;;;;;;5136584;27;20028;-71
2022/08/07 02:06:40;;;;;;;11.02;7.47;;;;;;;;;;5133646;27;20020;-71
2022/08/07 02:09:08;;;;;;;10.02;7.00;;;;;;;;;;5130559;27;20088;-72
2022/08/07 02:11:36;;;;;;;12.65;7.60;;;;;;;;;;5119105;27;20030;-72
2022/08/07 02:14:03;;;;;;;10.20;7.22;;;;;;;;;;5100533;28;20082;-72
2022/08/07 02:16:30;;;;;;;12.90;7.47;;;;;;;;;;5125508;27;20032;-71
2022/08/07 02:18:56;;;;;;;10.88;7.60;;;;;;;;;;5136461;27;20106;-70
2022/08/07 02:21:23;;;;;;;10.57;7.80;;;;;;;;;;5131059;27;20028;-70
2022/08/07 02:23:49;;;;;;;12.93;7.88;;;;;;;;;;5127870;27;20046;-70
2022/08/07 02:26:16;;;;;;;12.48;7.80;;;;;;;;;;5119309;28;20039;-71
2022/08/07 02:28:43;;;;;;;11.30;8.05;;;;;;;;;;5101016;28;20028;-71
2022/08/07 02:31:09;;;;;;;12.55;9.43;;;;;;;;;;5122163;27;20028;-71
2022/08/07 02:33:37;;;;;;;11.68;9.02;;;;;;;;;;5117233;28;20031;-71
2022/08/07 02:36:04;;;;;;;12.20;8.23;;;;;;;;;;5129847;27;20024;-71
2022/08/07 02:38:33;;;;;;;19.05;8.20;;;;;;;;;;5125600;27;20016;-71
2022/08/07 02:41:00;;;;;;;15.57;9.52;;;;;;;;;;5118735;28;20028;-71
2022/08/07 02:43:26;;;;;;;15.60;9.23;;;;;;;;;;5119069;28;20034;-71
2022/08/07 02:45:52;;;;;;;12.52;8.90;;;;;;;;;;5131077;27;20023;-71
2022/08/07 02:48:19;;;;;;;14.95;9.02;;;;;;;;;;5137743;27;20038;-70
2022/08/07 02:50:48;;;;;;;13.55;9.35;;;;;;;;;;5136716;27;20023;-72
2022/08/07 02:53:17;;;;;;;15.55;9.52;;;;;;;;;;5136830;27;20034;-72
2022/08/07 02:55:46;;;;;;;13.18;9.05;;;;;;;;;;5127090;27;20044;-71
2022/08/07 02:58:14;;;;;;;12.18;8.60;;;;;;;;;;5125745;27;20073;-71
2022/08/07 03:00:41;;;;;;;12.10;8.32;;;;;;;;;;5103024;28;20020;-71
2022/08/07 03:03:09;;;;;;;12.63;7.57;;;;;;;;;;5125290;27;20022;-71
2022/08/07 03:05:36;;;;;;;9.70;6.72;;;;;;;;;;5136020;27;20059;-71
2022/08/07 03:08:03;;;;;;;10.20;6.90;;;;;;;;;;5132079;27;20045;-72
2022/08/07 03:10:30;;;;;;;10.57;7.43;;;;;;;;;;5132516;27;20028;-72
2022/08/07 03:12:56;;;;;;;10.30;7.82;;;;;;;;;;5132053;28;20023;-72
2022/08/07 03:15:22;;;;;;;9.52;7.10;;;;;;;;;;5132788;27;20038;-71
2022/08/07 03:17:48;;;;;;;14.93;7.93;;;;;;;;;;5121229;27;20032;-72
2022/08/07 03:20:15;;;;;;;10.63;7.43;;;;;;;;;;5120199;28;20016;-72
2022/08/07 03:22:41;;;;;;;11.85;7.57;;;;;;;;;;5136872;27;20036;-71
2022/08/07 03:25:08;;;;;;;10.10;7.30;;;;;;;;;;5135588;27;20035;-71
2022/08/07 03:27:34;;;;;;;13.63;7.90;;;;;;;;;;5089371;27;20127;-70
2022/08/07 03:30:01;;;;;;;11.18;7.90;;;;;;;;;;5136761;27;20076;-72
2022/08/07 03:32:31;;;;;;;11.80;7.20;;;;;;;;;;5137655;27;20039;-72
2022/08/07 03:34:58;;;;;;;12.15;7.57;;;;;;;;;;5128163;27;20075;-71
2022/08/07 03:37:24;;;;;;;15.30;7.10;;;;;;;;;;5134963;27;20073;-72
2022/08/07 03:39:51;;;;;;;11.23;7.28;;;;;;;;;;5137775;27;20020;-72
2022/08/07 03:42:18;;;;;;;10.27;7.60;;;;;;;;;;5126482;27;20042;-71
2022/08/07 03:44:44;;;;;;;13.73;8.40;;;;;;;;;;5118668;27;20016;-72
2022/08/07 03:47:10;;;;;;;11.63;7.60;;;;;;;;;;5099582;28;20051;-71
2022/08/07 03:49:36;;;;;;;12.75;8.13;;;;;;;;;;5122187;28;20020;-71
2022/08/07 03:52:03;;;;;;;16.27;8.13;;;;;;;;;;5137645;27;20053;-71
2022/08/07 03:54:29;;;;;;;11.38;7.85;;;;;;;;;;5121633;27;20032;-72
2022/08/07 03:56:56;;;;;;;13.35;8.10;;;;;;;;;;5132264;27;20031;-71
2022/08/07 03:59:22;;;;;;;11.18;8.05;;;;;;;;;;5135676;27;20039;-72
2022/08/07 04:01:48;;;;;;;13.10;8.90;;;;;;;;;;5127430;27;20055;-71
2022/08/07 04:04:18;;;;;;;11.40;8.10;;;;;;;;;;5129242;27;20042;-72
2022/08/07 04:06:44;;;;;;;10.40;7.90;;;;;;;;;;5134682;27;20015;-71
2022/08/07 04:09:11;;;;;;;12.82;8.60;;;;;;;;;;5139498;27;20034;-72
2022/08/07 04:11:38;;;;;;;11.43;7.97;;;;;;;;;;5127830;27;20075;-71
2022/08/07 04:14:04;;;;;;;11.30;8.50;;;;;;;;;;5114073;28;20115;-72
2022/08/07 04:16:30;;;;;;;10.63;7.65;;;;;;;;;;5126745;28;20051;-71
2022/08/07 04:18:56;;;;;;;11.30;7.18;;;;;;;;;;5110790;28;20074;-71
2022/08/07 04:21:22;;;;;;;12.38;7.65;;;;;;;;;;5103416;28;20055;-71
2022/08/07 04:23:49;;;;;;;12.98;8.30;;;;;;;;;;5122380;27;20051;-72
2022/08/07 04:26:15;;;;;;;12.15;8.70;;;;;;;;;;5129749;27;20078;-71
2022/08/07 04:28:41;;;;;;;12.48;8.35;;;;;;;;;;5092992;28;20032;-72
2022/08/07 04:31:08;;;;;;;12.55;8.48;;;;;;;;;;5125043;27;20023;-71
2022/08/07 04:33:35;;;;;;;12.30;8.65;;;;;;;;;;5134022;27;20024;-71
2022/08/07 04:36:01;;;;;;;10.55;7.72;;;;;;;;;;5128198;27;20079;-72
2022/08/07 04:38:27;;;;;;;12.45;8.60;;;;;;;;;;5129202;27;20026;-72
2022/08/07 04:40:54;;;;;;;10.88;8.15;;;;;;;;;;5126731;27;20020;-71
2022/08/07 04:43:21;;;;;;;14.75;8.10;;;;;;;;;;5135918;27;20027;-71
2022/08/07 04:45:52;;;;;;;11.65;7.53;;;;;;;;;;5131846;27;20095;-72
2022/08/07 04:48:37;;;;;;;11.15;6.78;;;;;;;;;;5121071;28;20278;-72
2022/08/07 04:51:08;;;;;;;9.82;6.78;;;;;;;;;;5133737;27;20051;-72
2022/08/07 04:53:38;;;;;;;11.00;7.95;;;;;;;;;;5131183;27;20075;-72
2022/08/07 04:56:07;;;;;;;11.45;7.18;;;;;;;;;;5120496;28;20036;-71
2022/08/07 04:58:40;;;;;;;10.55;7.40;;;;;;;;;;5123397;27;20123;-72
2022/08/07 05:01:29;;;;;;;12.48;7.47;;;;;;;;;;5136009;27;20039;-72
2022/08/07 05:04:04;;;;;;;10.50;8.13;;;;;;;;;;5125003;27;20032;-73
2022/08/07 05:06:40;;;;;;;10.98;7.47;;;;;;;;;;5126445;28;20092;-72
2022/08/07 05:09:32;;;;;;;12.15;7.45;;;;;;;;;;5141351;27;20053;-71
2022/08/07 05:12:00;;;;;;;13.38;9.10;;;;;;;;;;5099249;27;20080;-72
2022/08/07 05:14:29;;;;;;;11.75;8.13;;;;;;;;;;5135775;27;20031;-71
2022/08/07 05:16:57;;;;;;;11.27;8.35;;;;;;;;;;5139712;27;20024;-72
2022/08/07 05:19:24;;;;;;;11.57;8.15;;;;;;;;;;5137126;27;20061;-71
2022/08/07 05:21:53;;;;;;;14.13;8.35;;;;;;;;;;5120191;28;20050;-72
2022/08/07 05:24:20;;;;;;;10.63;7.97;;;;;;;;;;5134107;27;20047;-71
2022/08/07 05:26:46;;;;;;;13.82;8.48;;;;;;;;;;5110937;28;20056;-72
2022/08/07 05:29:16;;;;;;;13.13;8.50;;;;;;;;;;5120494;28;20016;-71
2022/08/07 05:31:43;;;;;;;20.35;9.07;;;;;;;;;;5134318;27;20027;-70
2022/08/07 05:34:11;;;;;;;11.32;8.75;;;;;;;;;;5138687;27;20027;-72
2022/08/07 05:36:38;;;;;;;12.43;8.27;;;;;;;;;;5134917;27;20049;-71
2022/08/07 05:39:05;;;;;;;13.43;8.00;;;;;;;;;;5140197;27;20036;-72
2022/08/07 05:41:31;;;;;;;9.88;7.72;;;;;;;;;;5132600;27;20020;-71
2022/08/07 05:43:57;;;;;;;13.57;8.13;;;;;;;;;;5120227;28;20016;-71
2022/08/07 05:46:23;;;;;;;11.90;8.70;;;;;;;;;;5132852;27;20053;-71
2022/08/07 05:48:52;;;;;;;11.10;8.93;;;;;;;;;;5140352;27;20019;-72
2022/08/07 05:51:20;;;;;;;13.85;9.48;;;;;;;;;;5106345;28;20031;-71
2022/08/07 05:53:46;;;;;;;11.68;8.68;;;;;;;;;;5128668;27;20027;-72
2022/08/07 05:56:13;;;;;;;10.05;7.95;;;;;;;;;;5125602;28;20088;-70
2022/08/07 05:58:40;;;;;;;11.20;8.25;;;;;;;;;;5125581;27;20052;-71
2022/08/07 06:01:07;;;;;;;11.50;8.73;;;;;;;;;;5129945;27;20040;-71
2022/08/07 06:03:34;;;;;;;10.98;8.98;;;;;;;;;;5123356;27;20099;-71
2022/08/07 06:06:01;;;;;;;12.95;9.35;;;;;;;;;;5121667;27;20035;-71
2022/08/07 06:08:27;;;;;;;13.63;10.68;;;;;;;;;;5134059;27;20038;-73
2022/08/07 06:10:53;;;;;;;15.50;10.35;;;;;;;;;;5137855;27;20016;-72
2022/08/07 06:13:19;;;;;;;12.65;10.90;;;;;;;;;;5139044;28;20019;-72
2022/08/07 06:15:47;;;;;;;14.45;10.50;;;;;;;;;;5134095;27;20030;-72
2022/08/07 06:18:14;;;;;;;12.57;10.85;;;;;;;;;;5120966;27;20047;-72
2022/08/07 06:20:44;;;;;;;14.23;10.82;;;;;;;;;;5119325;28;20097;-71
2022/08/07 06:23:10;;;;;;;13.75;11.02;;;;;;;;;;5134577;27;20049;-71
2022/08/07 06:25:39;;;;;;;13.07;10.65;;;;;;;;;;5120820;28;20032;-73
2022/08/07 06:28:09;;;;;;;12.07;10.55;;;;;;;;;;5136733;27;20028;-72
2022/08/07 06:30:36;;;;;;;12.60;9.77;;;;;;;;;;5122189;28;20034;-71
2022/08/07 06:33:02;;;;;;;12.82;10.52;;;;;;;;;;5121350;27;20039;-72
2022/08/07 06:35:29;;;;;;;13.38;11.00;;;;;;;;;;5123917;28;20104;-72
2022/08/07 06:37:56;;;;;;;13.75;10.90;;;;;;;;;;5112571;28;20044;-71
2022/08/07 06:40:23;;;;;;;11.38;10.20;;;;;;;;;;5113460;28;20087;-70
2022/08/07 06:42:49;;;;;;;11.48;10.30;;;;;;;;;;5117978;28;20036;-71
2022/08/07 06:45:17;;;;;;;11.82;10.05;;;;;;;;;;5115425;28;20024;-71
2022/08/07 06:47:43;;;;;;;11.95;10.38;;;;;;;;;;5122487;28;20071;-71
2022/08/07 06:50:09;;;;;;;12.68;9.95;;;;;;;;;;5133010;28;20043;-70
2022/08/07 06:52:37;;;;;;;11.55;9.73;;;;;;;;;;5120000;28;20069;-70
2022/08/07 06:55:04;;;;;;;12.20;10.40;;;;;;;;;;5112481;28;20111;-71
2022/08/07 06:57:31;;;;;;;11.07;9.55;;;;;;;;;;5116517;28;20040;-71
2022/08/07 06:59:58;;;;;;;9.95;8.75;;;;;;;;;;5129381;28;20035;-71
2022/08/07 07:02:25;;;;;;;12.95;10.60;;;;;;;;;;5131666;28;20044;-71
2022/08/07 07:04:51;;;;;;;9.93;8.18;;;;;;;;;;5127308;28;20040;-71
2022/08/07 07:07:18;;;;;;;9.15;8.02;;;;;;;;;;5118779;28;20051;-71
2022/08/07 07:09:46;;;;;;;11.48;8.20;;;;;;;;;;5113102;28;20054;-71
2022/08/07 07:12:31;;;;;;;11.48;7.20;;;;;;;;;;5122803;28;20036;-72
2022/08/07 07:15:03;;;;;;;8.55;6.43;;;;;;;;;;5092873;28;20054;-71
2022/08/07 07:17:38;;;;;;;9.10;7.15;;;;;;;;;;5093742;28;20040;-71
2022/08/07 07:20:08;;;;;;;7.72;6.65;;;;;;;;;;5118842;28;20036;-71
2022/08/07 07:22:34;;;;;;;8.73;6.13;;;;;;;;;;5124632;28;20039;-70
2022/08/07 07:25:01;;;;;;;9.43;5.30;;;;;;;;;;5131955;28;20042;-71
2022/08/07 07:27:29;;;;;;;6.13;4.82;;;;;;;;;;5121692;28;20040;-71
2022/08/07 07:29:58;;;;;;;8.32;4.68;;;;;;;;;;5133370;28;20049;-71
2022/08/07 07:32:24;;;;;;;6.10;4.28;;;;;;;;;;5114379;28;20051;-71
2022/08/07 07:34:55;;;;;;;7.60;4.72;;;;;;;;;;5112713;28;20028;-70
2022/08/07 07:37:22;;;;;;;5.68;4.22;;;;;;;;;;5111561;28;20062;-71
2022/08/07 07:39:49;;;;;;;7.38;4.63;;;;;;;;;;5110000;28;20052;-71
2022/08/07 07:42:17;;;;;;;6.10;4.30;;;;;;;;;;5113131;28;20048;-71
2022/08/07 07:44:45;;;;;;;6.30;4.50;;;;;;;;;;5115861;28;20050;-70
2022/08/07 07:47:13;;;;;;;6.30;4.22;;;;;;;;;;5096446;28;20040;-71
2022/08/07 07:49:40;;;;;;;7.57;4.28;;;;;;;;;;5114887;28;20040;-71
2022/08/07 07:52:06;;;;;;;6.72;4.60;;;;;;;;;;5116919;28;20051;-73
2022/08/07 07:54:33;;;;;;;6.38;4.32;;;;;;;;;;5114459;28;20058;-73
2022/08/07 07:57:00;;;;;;;7.45;4.55;;;;;;;;;;5100876;28;20087;-73
2022/08/07 07:59:27;;;;;;;8.50;4.43;;;;;;;;;;5106937;28;20051;-73
2022/08/07 08:01:54;;;;;;;7.07;4.40;;;;;;;;;;5123745;28;20044;-75
2022/08/07 08:04:21;;;;;;;11.57;4.50;;;;;;;;;;5118404;28;20051;-72
2022/08/07 08:06:48;;;;;;;7.70;4.75;;;;;;;;;;5119656;27;20040;-76
2022/08/07 08:09:16;;;;;;;9.10;4.57;;;;;;;;;;5100116;28;20044;-72
2022/08/07 08:11:43;;;;;;;7.60;4.38;;;;;;;;;;5097712;28;20044;-73
2022/08/07 08:14:09;;;;;;;7.18;4.40;;;;;;;;;;5085047;28;20372;-77
2022/08/07 08:16:38;;;;;;;7.53;5.20;;;;;;;;;;5106176;28;20103;-74
2022/08/07 08:19:06;;;;;;;9.73;4.88;;;;;;;;;;5099229;28;20048;-73
2022/08/07 08:27:04;;;;;;;7.82;4.93;;;;;;;;;;5110422;28;20112;-74
2022/08/07 08:29:50;;;;;;;8.27;4.70;;;;;;;;;;5105395;28;20051;-74
2022/08/07 08:32:20;;;;;;;10.00;5.22;;;;;;;;;;5092508;28;20083;-76
2022/08/07 08:34:48;;;;;;;7.13;5.05;;;;;;;;;;5093749;28;20110;-74
2022/08/07 08:37:15;;;;;;;6.90;4.93;;;;;;;;;;5094212;28;20070;-72
2022/08/07 08:39:43;;;;;;;7.53;4.50;;;;;;;;;;5094077;28;20040;-72
2022/08/07 08:42:19;;;;;;;7.25;4.88;;;;;;;;;;5097107;28;20036;-73
2022/08/07 08:44:45;;;;;;;10.95;4.80;;;;;;;;;;5113472;28;20126;-74
2022/08/07 08:47:21;;;;;;;6.75;4.82;;;;;;;;;;5102020;28;20114;-73
2022/08/07 08:49:52;;;;;;;7.45;4.63;;;;;;;;;;5090855;28;20036;-73
2022/08/07 08:52:21;;;;;;;8.05;4.78;;;;;;;;;;5097828;28;20036;-73
2022/08/07 08:54:47;;;;;;;6.32;4.05;;;;;;;;;;5115236;28;20382;-73
2022/08/07 08:57:26;;;;;;;7.18;4.97;;;;;;;;;;5111924;28;20605;-73
2022/08/07 08:59:56;;;;;;;6.60;4.68;;;;;;;;;;5107168;28;20040;-73
2022/08/07 09:02:31;;;;;;;7.07;4.57;;;;;;;;;;5111951;28;20036;-75
2022/08/07 09:05:13;;;;;;;10.38;4.65;;;;;;;;;;5112171;28;20046;-73
2022/08/07 09:07:45;;;;;;;7.30;4.55;;;;;;;;;;5101638;28;20591;-74
2022/08/07 09:10:17;;;;;;;8.20;4.72;;;;;;;;;;5104696;28;20104;-73
2022/08/07 09:12:56;;;;;;;6.40;4.40;;;;;;;;;;5104503;28;20039;-72
2022/08/07 09:15:22;;;;;;;7.07;4.47;;;;;;;;;;5111333;28;20123;-73
2022/08/07 09:17:53;;;;;;;8.15;4.88;;;;;;;;;;5112826;28;20169;-73
2022/08/07 09:20:22;;;;;;;6.45;4.55;;;;;;;;;;5112435;28;20063;-74
2022/08/07 09:22:56;;;;;;;8.23;4.53;;;;;;;;;;5101541;28;20118;-74
2022/08/07 09:25:22;;;;;;;7.47;4.28;;;;;;;;;;5118633;28;20058;-73
2022/08/07 09:27:48;;;;;;;6.70;4.43;;;;;;;;;;5073840;28;20052;-73
2022/08/07 09:30:16;;;;;;;8.35;4.63;;;;;;;;;;5097216;28;20044;-73
2022/08/07 09:33:06;;;;;;;6.15;4.15;;;;;;;;;;5102591;28;20558;-73
2022/08/07 09:36:01;;;;;;;6.45;4.55;;;;;;;;;;5100014;28;20052;-74
2022/08/07 09:38:38;;;;;;;7.18;4.05;;;;;;;;;;5062631;28;20056;-74
2022/08/07 09:41:23;;;;;;;7.00;4.28;;;;;;;;;;5097077;28;20097;-73
2022/08/07 09:44:03;;;;;;;7.63;4.28;;;;;;;;;;5110020;28;20173;-72
2022/08/07 09:46:43;;;;;;;6.82;4.03;;;;;;;;;;5096902;28;20473;-73
2022/08/07 09:49:11;;;;;;;5.85;3.72;;;;;;;;;;5104577;28;20048;-74
2022/08/07 09:51:38;;;;;;;6.45;3.92;;;;;;;;;;5077580;28;20048;-74
2022/08/07 09:54:07;;;;;;;7.85;4.50;;;;;;;;;;5088036;28;20080;-73
2022/08/07 09:56:52;;;;;;;7.50;4.15;;;;;;;;;;5077131;28;20047;-74
2022/08/07 09:59:27;;;;;;;6.22;4.10;;;;;;;;;;5108706;28;20093;-74
2022/08/07 10:02:00;;;;;;;6.32;3.92;;;;;;;;;;5097649;28;20078;-74
2022/08/07 10:04:45;;;;;;;7.53;4.00;;;;;;;;;;5101296;28;20039;-74
2022/08/07 10:07:29;;;;;;;5.78;3.60;;;;;;;;;;5109242;28;20454;-74
2022/08/07 10:10:04;;;;;;;6.65;3.53;;;;;;;;;;5105705;28;20420;-72
2022/08/07 10:12:48;;;;;;;7.28;3.70;;;;;;;;;;5114374;28;20071;-74
2022/08/07 10:15:15;;;;;;;5.70;3.40;;;;;;;;;;5060426;28;20093;-74
2022/08/07 10:18:00;;;;;;;6.07;3.40;;;;;;;;;;5095160;28;20047;-73
2022/08/07 10:20:52;;;;;;;7.15;3.22;;;;;;;;;;5103988;28;20040;-72
2022/08/07 10:23:18;;;;;;;6.22;3.20;;;;;;;;;;5102648;28;20058;-72
2022/08/07 10:25:54;;;;;;;5.50;3.13;;;;;;;;;;5096749;28;20032;-73
2022/08/07 10:28:31;;;;;;;5.00;2.83;;;;;;;;;;5096430;28;20044;-74
2022/08/07 10:30:58;;;;;;;6.15;3.17;;;;;;;;;;5098292;28;20044;-72
2022/08/07 10:33:56;;;;;;;5.18;2.83;;;;;;;;;;5079624;28;20056;-73
2022/08/07 10:36:41;;;;;;;5.25;2.83;;;;;;;;;;5053550;28;20082;-72
2022/08/07 10:39:18;;;;;;;6.20;3.03;;;;;;;;;;5087084;28;20048;-72
2022/08/07 10:41:54;;;;;;;6.30;2.88;;;;;;;;;;5117157;28;20096;-72
2022/08/07 10:44:29;;;;;;;5.80;2.50;;;;;;;;;;5108708;28;20048;-73
2022/08/07 10:47:07;;;;;;;6.38;3.00;;;;;;;;;;5098806;28;20044;-72
2022/08/07 10:49:44;;;;;;;5.18;2.75;;;;;;;;;;5105846;28;20101;-73
2022/08/07 10:52:46;;;;;;;5.38;2.53;;;;;;;;;;5062550;28;20055;-73
2022/08/07 10:55:18;;;;;;;7.28;2.80;;;;;;;;;;5025841;28;20520;-74
2022/08/07 10:57:57;;;;;;;7.70;2.80;;;;;;;;;;5034820;28;20096;-73
2022/08/07 11:00:26;;;;;;;5.93;2.35;;;;;;;;;;5039975;28;20502;-73
2022/08/07 11:03:12;;;;;;;5.40;2.38;;;;;;;;;;5034864;28;20566;-72
2022/08/07 11:05:38;;;;;;;4.90;2.30;;;;;;;;;;5024635;28;20132;-72
2022/08/07 11:08:12;;;;;;;6.78;2.55;;;;;;;;;;5035599;28;20116;-73
2022/08/07 11:10:42;;;;;;;5.43;2.33;;;;;;;;;;5034167;28;20415;-73
2022/08/07 11:13:24;;;;;;;5.60;2.42;;;;;;;;;;5040707;28;20176;-73
2022/08/07 11:15:53;;;;;;;7.38;2.28;;;;;;;;;;5042355;28;20079;-74
2022/08/07 11:18:24;;;;;;;5.13;2.60;;;;;;;;;;5032405;28;20169;-73
2022/08/07 11:21:03;;;;;;;7.28;3.17;;;;;;;;;;5035392;28;20049;-74
2022/08/07 11:23:39;;;;;;;8.98;2.90;;;;;;;;;;5046455;28;20079;-74
2022/08/07 11:26:16;;;;;;;4.40;2.30;;;;;;;;;;5051078;28;20041;-74
2022/08/07 11:29:00;;;;;;;5.22;2.35;;;;;;;;;;5067994;28;20055;-72
2022/08/07 11:31:32;;;;;;;5.78;2.72;;;;;;;;;;5112229;28;20048;-74
2022/08/07 11:34:05;;;;;;;6.13;2.40;;;;;;;;;;5104581;28;20043;-73
2022/08/07 11:36:43;;;;;;;4.70;2.15;;;;;;;;;;5110818;28;20054;-73
2022/08/07 11:39:15;;;;;;;4.28;1.98;;;;;;;;;;5106600;28;20480;-73
2022/08/07 11:41:48;;;;;;;4.75;1.90;;;;;;;;;;5089887;28;20155;-74
2022/08/07 11:44:33;;;;;;;5.05;2.30;;;;;;;;;;5107358;28;20075;-73
2022/08/07 11:47:24;;;;;;;4.40;2.20;;;;;;;;;;5119986;28;20044;-73
2022/08/07 11:50:12;;;;;;;4.50;2.15;;;;;;;;;;5117498;28;20040;-74
2022/08/07 11:52:56;;;;;;;5.32;2.08;;;;;;;;;;5105379;28;20447;-73
2022/08/07 11:55:34;;;;;;;5.03;2.40;;;;;;;;;;5063838;28;20063;-73
2022/08/07 11:58:39;;;;;;;5.35;2.20;;;;;;;;;;5108574;28;20078;-73
2022/08/07 12:01:13;;;;;;;4.35;2.10;;;;;;;;;;5020630;28;20050;-73
2022/08/07 12:03:40;;;;;;;4.72;2.20;;;;;;;;;;5021609;28;20084;-73
2022/08/07 12:06:12;;;;;;;4.43;2.30;;;;;;;;;;5022370;28;20054;-73
2022/08/07 12:08:45;;;;;;;4.93;2.30;;;;;;;;;;5004254;28;20050;-73
2022/08/07 12:11:13;;;;;;;6.50;2.63;;;;;;;;;;5021881;28;20077;-74
2022/08/07 12:13:41;;;;;;;4.07;2.08;;;;;;;;;;4995374;28;20053;-72
2022/08/07 12:16:22;;;;;;;4.22;2.00;;;;;;;;;;5018692;28;20045;-74
2022/08/07 12:19:06;;;;;;;4.25;1.90;;;;;;;;;;5016337;28;20471;-75
2022/08/07 12:21:32;;;;;;;5.03;2.10;;;;;;;;;;5024711;28;20041;-73
2022/08/07 12:24:19;;;;;;;3.70;1.80;;;;;;;;;;4998607;28;20825;-74
2022/08/07 12:26:53;;;;;;;4.22;2.05;;;;;;;;;;5017035;28;20510;-73
2022/08/07 12:29:25;;;;;;;4.50;1.98;;;;;;;;;;5021186;28;20070;-74
2022/08/07 12:31:58;;;;;;;4.05;2.00;;;;;;;;;;5070104;28;20035;-73
2022/08/07 12:34:25;;;;;;;3.35;1.70;;;;;;;;;;5125731;28;20046;-74
2022/08/07 12:36:53;;;;;;;4.50;1.90;;;;;;;;;;5127915;28;20030;-74
2022/08/07 12:39:20;;;;;;;4.20;1.70;;;;;;;;;;5121648;28;20389;-76
2022/08/07 12:41:46;;;;;;;4.10;1.70;;;;;;;;;;5094768;28;20145;-73
2022/08/07 12:44:14;;;;;;;4.38;1.80;;;;;;;;;;5116252;28;20096;-74
2022/08/07 12:46:47;;;;;;;3.33;1.50;;;;;;;;;;5127113;28;20082;-73
2022/08/07 12:49:31;;;;;;;3.88;1.70;;;;;;;;;;5124602;28;20119;-73
2022/08/07 12:52:08;;;;;;;3.97;1.85;;;;;;;;;;5114871;28;20066;-73
2022/08/07 12:54:57;;;;;;;4.53;1.40;;;;;;;;;;5100208;28;20066;-74
2022/08/07 12:57:26;;;;;;;3.85;1.60;;;;;;;;;;5130133;27;20071;-74
2022/08/07 12:59:53;;;;;;;4.68;1.85;;;;;;;;;;5124581;28;20048;-74
2022/08/07 13:02:28;;;;;;;3.50;1.50;;;;;;;;;;5120513;28;20040;-74
2022/08/07 13:05:16;;;;;;;6.10;1.60;;;;;;;;;;5124738;27;20023;-72
2022/08/07 13:08:06;;;;;;;5.85;1.80;;;;;;;;;;5108208;28;20047;-73
2022/08/07 13:10:38;;;;;;;4.65;1.58;;;;;;;;;;5126507;28;20083;-73
2022/08/07 13:13:07;;;;;;;3.38;1.50;;;;;;;;;;5083951;28;20052;-72
2022/08/07 13:15:33;;;;;;;5.45;1.50;;;;;;;;;;5112292;28;20023;-73
2022/08/07 13:18:06;;;;;;;3.53;1.38;;;;;;;;;;5107113;28;20125;-73
2022/08/07 13:20:42;;;;;;;4.38;1.63;;;;;;;;;;5117348;28;20053;-73
2022/08/07 13:23:44;;;;;;;3.88;1.20;;;;;;;;;;5112015;28;20035;-74
2022/08/07 13:26:21;;;;;;;4.05;1.50;;;;;;;;;;5056006;28;20145;-77
2022/08/07 13:28:55;;;;;;;3.47;1.52;;;;;;;;;;5058897;28;20570;-74
2022/08/07 13:31:35;;;;;;;4.22;1.60;;;;;;;;;;5044623;28;20025;-73
2022/08/07 13:34:21;;;;;;;2.92;1.40;;;;;;;;;;5058062;28;20037;-73
2022/08/07 13:36:50;;;;;;;4.95;1.50;;;;;;;;;;5058972;28;20045;-72
2022/08/07 13:39:21;;;;;;;3.75;1.48;;;;;;;;;;5065323;28;20083;-73
2022/08/07 13:41:49;;;;;;;4.72;1.50;;;;;;;;;;5053477;28;20049;-73
2022/08/07 13:44:19;;;;;;;4.18;1.50;;;;;;;;;;5057494;28;20049;-73
2022/08/07 13:46:46;;;;;;;4.32;1.58;;;;;;;;;;5055705;28;20049;-75
2022/08/07 13:49:16;;;;;;;2.95;1.38;;;;;;;;;;5053510;28;20041;-74
2022/08/07 13:51:44;;;;;;;3.33;1.40;;;;;;;;;;5057411;28;20044;-74
2022/08/07 13:54:11;;;;;;;4.20;1.58;;;;;;;;;;5042987;28;20076;-75
2022/08/07 13:56:39;;;;;;;5.45;1.40;;;;;;;;;;5050055;28;20056;-73
2022/08/07 13:59:08;;;;;;;2.92;1.35;;;;;;;;;;5053687;28;20040;-74
2022/08/07 14:01:38;;;;;;;3.63;1.38;;;;;;;;;;5110490;28;20054;-73
2022/08/07 14:04:08;;;;;;;4.10;1.45;;;;;;;;;;5118515;28;20069;-74
2022/08/07 14:06:36;;;;;;;4.32;1.33;;;;;;;;;;5120154;28;20073;-73
2022/08/07 14:09:03;;;;;;;3.22;1.40;;;;;;;;;;5127195;27;20580;-73
2022/08/07 14:11:30;;;;;;;3.45;1.55;;;;;;;;;;5099689;27;20046;-74
2022/08/07 14:14:03;;;;;;;3.22;1.42;;;;;;;;;;5122439;28;20036;-73
2022/08/07 14:16:31;;;;;;;3.38;1.60;;;;;;;;;;5120137;28;20032;-72
2022/08/07 14:18:58;;;;;;;4.10;1.48;;;;;;;;;;5116001;28;20052;-74
2022/08/07 14:21:26;;;;;;;3.65;1.50;;;;;;;;;;5122181;28;20046;-74
2022/08/07 14:24:04;;;;;;;3.72;1.50;;;;;;;;;;5107075;28;20075;-74
2022/08/07 14:26:48;;;;;;;2.88;1.30;;;;;;;;;;5110935;27;20028;-73
2022/08/07 14:29:16;;;;;;;3.13;1.35;;;;;;;;;;5125433;27;20034;-73
2022/08/07 14:31:43;;;;;;;3.83;1.40;;;;;;;;;;5127694;28;20022;-73
2022/08/07 14:34:11;;;;;;;3.15;1.40;;;;;;;;;;5121915;28;20036;-80
2022/08/07 14:36:38;;;;;;;6.82;1.50;;;;;;;;;;5080588;28;20825;-76
2022/08/07 14:39:04;;;;;;;3.75;1.50;;;;;;;;;;5116228;28;20068;-74
2022/08/07 14:41:32;;;;;;;4.15;1.52;;;;;;;;;;5111858;28;20384;-73
2022/08/07 14:43:59;;;;;;;3.15;1.40;;;;;;;;;;5116116;28;20056;-71
2022/08/07 14:46:26;;;;;;;3.55;1.50;;;;;;;;;;5110453;28;20078;-75
2022/08/07 14:48:53;;;;;;;5.43;1.60;;;;;;;;;;5094499;28;20043;-75
2022/08/07 14:51:21;;;;;;;3.25;1.40;;;;;;;;;;5117745;28;20404;-73
2022/08/07 14:53:49;;;;;;;3.58;1.50;;;;;;;;;;5107964;28;20058;-75
2022/08/07 14:56:18;;;;;;;3.72;1.50;;;;;;;;;;5118758;28;20122;-74
2022/08/07 14:58:47;;;;;;;3.80;1.55;;;;;;;;;;5127748;28;20036;-72
2022/08/07 15:01:16;;;;;;;3.58;1.50;;;;;;;;;;5117202;28;20069;-74